AirNav  
 
 1057 users online  

82A Marion County Airport
Buena Vista, Georgia, USA

GOING TO BUENA VISTA?


FAA INFORMATION EFFECTIVE 25 MARCH 2021

Location

FAA Identifier: 82A
Lat/Long: 32-16-58.1000N 084-30-13.3000W
32-16.968333N 084-30.221667W
32.2828056,-84.5036944
(estimated)
Elevation: 682 ft. / 207.9 m (surveyed)
Variation: 02W (1985)
From city: 3 miles SE of BUENA VISTA, GA
Time zone: UTC -4 (UTC -5 during Standard Time)
Zip code: 31803

Airport Operations

Airport use: Open to the public
Activation date: 01/1975
Control tower: no
ARTCC: ATLANTA CENTER
FSS: MACON FLIGHT SERVICE STATION
NOTAMs facility: MCN (NOTAM-D service available)
Attendance: UNATNDD
Wind indicator: yes
Segmented circle: yes
Lights: ACTVT MIRL RWY 14/32 -CTAF.

Airport Communications

CTAF: 122.9
WX AWOS-3 at ACJ (19 nm SE): 128.375 (229-928-0934)

Nearby radio navigation aids

VOR radial/distance  VOR name  Freq  Var
LSFr099/25.0LAWSON VOR/DME111.4002W
CSGr126/32.8COLUMBUS VORTAC117.1001E
EUFr056/37.6EUFAULA VORTAC109.2002E
PZDr346/39.2PECAN VOR/DME116.1002W

 
NDB name  Hdg/Dist  Freq  Var  ID
LINDBERGH292/21.124204WLKG .-.. -.- --.
MONTEZUMA263/25.742604WIZS .. --.. ...
LAWSON093/26.433502WAWS .- .-- ...
CONEY304/36.840006WOHY --- .... -.--
PINE MOUNTAIN154/38.427203WPIM .--. .. --

Airport Services

Parking: tiedowns
Airframe service: NONE
Powerplant service: NONE
Bottled oxygen: NONE
Bulk oxygen: NONE

Runway Information

Runway 14/32

Dimensions: 3200 x 75 ft. / 975 x 23 m
Surface: asphalt, in excellent condition
Weight bearing capacity: 
Single wheel: 14.0
Runway edge lights: medium intensity
RUNWAY 14  RUNWAY 32
Latitude: 32-17.160500N32-16.777000N
Longitude: 084-30.435167W084-30.008167W
Traffic pattern: leftleft
Markings: basic, in good conditionbasic, in good condition
Obstructions: 26 ft. trees, 1084 ft. from runway, 34:1 slope to clear38 ft. trees, 1492 ft. from runway, 210 ft. right of centerline, 34:1 slope to clear

Airport Ownership and Management from official FAA records

Ownership: Publicly-owned
Owner: MARION COUNTY
PO BOX 481
BUENA VISTA, GA 31803
Phone 229-649-2603
Manager: JUSTIN STRICKLAND
100 EAST BURKHALTER AVE, PO BOX 481
BUENA VISTA, GA 31803
Phone 229-649-2603

Airport Operational Statistics

Aircraft operations: avg 23/week *
50% transient general aviation
50% local general aviation
* for 12-month period ending 31 December 2018

Additional Remarks

PAEW ON & INVOF RY. UNRESTRICTED ACCESS TO RY.
FOR CD CTC ATLANTA APCH AT 678-364-6132, WHEN APCH CLSD CTC ATLANTA ARTCC AT 770-210-7692.

Instrument Procedures

There are no published instrument procedures at 82A.

Some nearby airports with instrument procedures:

KACJ - Jimmy Carter Regional Airport (19 nm SE)
6A1 - Butler Municipal Airport (22 nm NE)
KLSF - Lawson Army Airfield (Fort Benning) (25 nm W)
53A - Dr. C P Savage Sr. Airport (25 nm E)
KCSG - Columbus Airport (26 nm NW)
 
Loc | Ops | Rwys | IFR | FBO | Links
Com | Nav | Svcs | Stats | Notes
Area around 82A (Marion County Airport)
 
Road maps at: MapQuest Bing Google
 
Aerial photo
WARNING: Photo may not be current or correct
Aerial photo of 82A (Marion County Airport)
Do you have a better or more recent aerial photo of Marion County Airport that you would like to share? If so, please send us your photo.

 
Sectional chart

 
Airport distance calculator
Flying to Marion County Airport? Find the distance to fly.

From to 82A

Sunrise and sunset
Times for 15-Apr-2021
 Local
(UTC-4)
 Zulu
(UTC)
Morning civil twilight06:4510:45
Sunrise07:1011:10
Sunset20:0600:06
Evening civil twilight20:3200:32

Current date and time
Zulu (UTC)  16-Apr-2021 00:26:08
Local (UTC-4)  15-Apr-2021 20:26:08
 
METAR
KACJ 
19nm SE 
160015Z AUTO 00000KT 10SM SCT044 20/17 A2986 RMK AO2
K6A1 
21nm NE 
160015Z AUTO 31005KT 10SM CLR 19/08 A2985 RMK AO2 T01930081
KLSF 
25nm W 
152356Z AUTO 27004KT 10SM CLR 18/13 A2983 RMK AO2 SLP106 T01780125 10236 20178 55006 $
KCSG 
27nm NW 
152351Z 32005KT 10SM CLR 21/10 A2985 RMK AO2 SLP103 T02110100 10233 20211 55007
KEUF 
37nm SW 
152258Z AUTO 29004KT 10SM FEW048 BKN060 22/16 A2986 RMK AO2 SLP107 T02170161
TAF
KLSF 
25nm W 
152100Z 1521/1703 32008KT 9999 SCT030 BKN040 QNH2984INS BECMG 1522/1523 31007KT 9999 SCT035 SCT250 QNH2985INS BECMG 1606/1607 33004KT 9999 BKN150 BKN200 QNH2985INS BECMG 1617/1618 VRB06KT 9999 BKN080 OVC120 QNH2984INS BECMG 1623/1624 25003KT 9999 BKN050 OVC080 QNH2986INS TX20/1621Z TN09/1611Z LAST NO AMDS AFT 1603 NEXT 1613
KCSG 
27nm NW 
151949Z 1520/1618 34007KT P6SM OVC040 FM152200 32007KT P6SM FEW250 FM161000 01004KT P6SM BKN250
NOTAMs
Click for the latest NOTAMs
NOTAMs are issued by the DoD/FAA and will open in a separate window not controlled by AirNav.

 

 
 

Would you like to see your business listed on this page?

 If your business provides an interesting product or service to pilots, flight crews, aircraft, or users of the Marion County Airport, you should consider listing it here.  To start the listing process, click on the button below
 
Add a business
 

Other Pages about Marion County Airport

Update a link
 
Copyright © AirNav, LLC. All rights reserved. Privacy Policy  Contact